GBKIJ EGSR-EGKA
Flight info
| Callsign | GBKIJ |
|---|---|
| Flight time | 0h 44m |
| Altitude | 2000 |
| Route | VFR |
| Aircraft | C172/L-SFG/C |
Departure
| Time | 2026-05-06 13:00 |
|---|---|
| Airport | Earls Colne Airfield (EGSR) |
Arrival
| Time | 2026-05-06 13:44 |
|---|---|
| Airport | Brighton City Airport (EGKA) |
| Time | Latitude | Longitude | Altitude | Speed | Heading |
|---|---|---|---|---|---|
| 2026-05-06 12:46 | 51.91155 | 0.67587 | 234 ft | 0 kts | 343° |
| 2026-05-06 12:57 | 51.91167 | 0.67594 | 234 ft | 4 kts | 32° |
| 2026-05-06 12:57 | 51.91172 | 0.67621 | 234 ft | 4 kts | 119° |
| 2026-05-06 12:57 | 51.91167 | 0.67709 | 233 ft | 11 kts | 58° |
| 2026-05-06 12:57 | 51.91202 | 0.67748 | 234 ft | 0 kts | 22° |
| 2026-05-06 12:58 | 51.91229 | 0.67768 | 235 ft | 11 kts | 15° |
| 2026-05-06 12:59 | 51.91319 | 0.67924 | 233 ft | 39 kts | 58° |
| 2026-05-06 12:59 | 51.91492 | 0.68466 | 318 ft | 59 kts | 51° |
| 2026-05-06 12:59 | 51.91635 | 0.68920 | 468 ft | 57 kts | 47° |
| 2026-05-06 12:59 | 51.91936 | 0.69712 | 739 ft | 75 kts | 63° |
| 2026-05-06 13:00 | 51.91785 | 0.70671 | 917 ft | 99 kts | 111° |
| 2026-05-06 13:00 | 51.91561 | 0.71384 | 991 ft | 111 kts | 109° |
| 2026-05-06 13:00 | 51.91001 | 0.72301 | 1179 ft | 121 kts | 153° |
| 2026-05-06 13:00 | 51.90183 | 0.72241 | 1238 ft | 126 kts | 224° |
| 2026-05-06 13:01 | 51.89605 | 0.71283 | 1366 ft | 118 kts | 231° |
| 2026-05-06 13:01 | 51.88982 | 0.70384 | 1469 ft | 121 kts | 229° |
| 2026-05-06 13:01 | 51.88363 | 0.69458 | 1618 ft | 121 kts | 229° |
| 2026-05-06 13:01 | 51.87746 | 0.68546 | 1754 ft | 118 kts | 230° |
| 2026-05-06 13:02 | 51.87161 | 0.67680 | 1863 ft | 112 kts | 229° |
| 2026-05-06 13:02 | 51.86599 | 0.66842 | 1979 ft | 112 kts | 230° |
| 2026-05-06 13:02 | 51.86003 | 0.65941 | 2002 ft | 119 kts | 229° |
| 2026-05-06 13:02 | 51.85398 | 0.65034 | 1999 ft | 122 kts | 230° |
| 2026-05-06 13:03 | 51.84769 | 0.64103 | 1992 ft | 123 kts | 230° |
| 2026-05-06 13:03 | 51.84136 | 0.63170 | 1986 ft | 123 kts | 230° |
| 2026-05-06 13:03 | 51.83508 | 0.62244 | 2007 ft | 123 kts | 230° |
| 2026-05-06 13:03 | 51.82911 | 0.61362 | 2008 ft | 124 kts | 229° |
| 2026-05-06 13:04 | 51.82272 | 0.60417 | 2000 ft | 125 kts | 229° |
| 2026-05-06 13:04 | 51.81626 | 0.59466 | 2012 ft | 126 kts | 231° |
| 2026-05-06 13:04 | 51.80979 | 0.58512 | 2007 ft | 126 kts | 229° |
| 2026-05-06 13:04 | 51.80336 | 0.57567 | 1995 ft | 124 kts | 228° |
| 2026-05-06 13:05 | 51.79700 | 0.56631 | 2007 ft | 124 kts | 227° |
| 2026-05-06 13:05 | 51.79058 | 0.55687 | 2022 ft | 126 kts | 229° |
| 2026-05-06 13:05 | 51.78406 | 0.54724 | 2014 ft | 128 kts | 228° |
| 2026-05-06 13:05 | 51.77752 | 0.53765 | 1997 ft | 126 kts | 226° |
| 2026-05-06 13:06 | 51.77110 | 0.52828 | 2000 ft | 124 kts | 229° |
| 2026-05-06 13:06 | 51.76493 | 0.51923 | 1999 ft | 123 kts | 228° |
| 2026-05-06 13:06 | 51.75875 | 0.51014 | 1997 ft | 120 kts | 228° |
| 2026-05-06 13:06 | 51.75275 | 0.50137 | 2009 ft | 120 kts | 228° |
| 2026-05-06 13:07 | 51.74654 | 0.49225 | 2014 ft | 121 kts | 227° |
| 2026-05-06 13:07 | 51.74030 | 0.48308 | 2003 ft | 121 kts | 225° |
| 2026-05-06 13:07 | 51.73399 | 0.47408 | 2011 ft | 122 kts | 221° |
| 2026-05-06 13:07 | 51.72690 | 0.46772 | 2004 ft | 126 kts | 210° |
| 2026-05-06 13:08 | 51.71901 | 0.46141 | 2002 ft | 127 kts | 210° |
| 2026-05-06 13:08 | 51.71102 | 0.45503 | 1995 ft | 129 kts | 211° |
| 2026-05-06 13:08 | 51.70303 | 0.44859 | 2000 ft | 129 kts | 210° |
| 2026-05-06 13:08 | 51.69488 | 0.44203 | 2026 ft | 132 kts | 210° |
| 2026-05-06 13:09 | 51.68663 | 0.43541 | 2004 ft | 133 kts | 209° |
| 2026-05-06 13:09 | 51.67835 | 0.42880 | 1990 ft | 132 kts | 210° |
| 2026-05-06 13:09 | 51.67009 | 0.42219 | 1972 ft | 132 kts | 210° |
| 2026-05-06 13:09 | 51.66192 | 0.41564 | 1977 ft | 131 kts | 211° |
| 2026-05-06 13:10 | 51.65379 | 0.40911 | 1986 ft | 130 kts | 211° |
| 2026-05-06 13:10 | 51.64567 | 0.40263 | 1987 ft | 130 kts | 211° |
| 2026-05-06 13:10 | 51.63754 | 0.39612 | 1989 ft | 130 kts | 211° |
| 2026-05-06 13:10 | 51.62944 | 0.38962 | 2003 ft | 131 kts | 211° |
| 2026-05-06 13:11 | 51.62133 | 0.38310 | 1996 ft | 130 kts | 210° |
| 2026-05-06 13:11 | 51.61324 | 0.37663 | 2001 ft | 129 kts | 210° |
| 2026-05-06 13:11 | 51.60522 | 0.37026 | 2002 ft | 129 kts | 209° |
| 2026-05-06 13:11 | 51.59723 | 0.36387 | 2000 ft | 129 kts | 210° |
| 2026-05-06 13:12 | 51.58917 | 0.35744 | 2010 ft | 128 kts | 210° |
| 2026-05-06 13:12 | 51.58399 | 0.35329 | 2002 ft | 127 kts | 211° |
| 2026-05-06 13:12 | 51.57611 | 0.34700 | 2014 ft | 125 kts | 210° |
| 2026-05-06 13:12 | 51.56838 | 0.34081 | 2020 ft | 124 kts | 209° |
| 2026-05-06 13:13 | 51.56062 | 0.33460 | 2025 ft | 126 kts | 211° |
| 2026-05-06 13:13 | 51.55272 | 0.32828 | 2033 ft | 127 kts | 210° |
| 2026-05-06 13:13 | 51.54479 | 0.32197 | 2029 ft | 128 kts | 210° |
| 2026-05-06 13:13 | 51.53683 | 0.31564 | 2014 ft | 127 kts | 209° |
| 2026-05-06 13:14 | 51.52920 | 0.30957 | 2028 ft | 128 kts | 210° |
| 2026-05-06 13:14 | 51.52125 | 0.30322 | 2029 ft | 128 kts | 208° |
| 2026-05-06 13:14 | 51.51330 | 0.29684 | 2001 ft | 127 kts | 209° |
| 2026-05-06 13:14 | 51.50538 | 0.29064 | 2008 ft | 126 kts | 210° |
| 2026-05-06 13:15 | 51.49755 | 0.28428 | 2009 ft | 126 kts | 210° |
| 2026-05-06 13:15 | 51.49048 | 0.27848 | 2018 ft | 127 kts | 210° |
| 2026-05-06 13:15 | 51.48264 | 0.27193 | 2014 ft | 128 kts | 210° |
| 2026-05-06 13:15 | 51.47481 | 0.26527 | 2008 ft | 127 kts | 211° |
| 2026-05-06 13:16 | 51.46683 | 0.25882 | 2004 ft | 129 kts | 211° |
| 2026-05-06 13:16 | 51.45890 | 0.25231 | 1982 ft | 127 kts | 210° |
| 2026-05-06 13:16 | 51.45102 | 0.24580 | 1998 ft | 128 kts | 211° |
| 2026-05-06 13:16 | 51.44301 | 0.23943 | 2006 ft | 129 kts | 210° |
| 2026-05-06 13:17 | 51.43496 | 0.23299 | 2007 ft | 131 kts | 212° |
| 2026-05-06 13:17 | 51.42870 | 0.22334 | 1995 ft | 124 kts | 241° |
| 2026-05-06 13:17 | 51.42335 | 0.21245 | 2012 ft | 125 kts | 239° |
| 2026-05-06 13:17 | 51.41804 | 0.20153 | 2006 ft | 124 kts | 239° |
| 2026-05-06 13:18 | 51.41292 | 0.19048 | 1994 ft | 123 kts | 239° |
| 2026-05-06 13:18 | 51.40790 | 0.17946 | 1998 ft | 122 kts | 240° |
| 2026-05-06 13:18 | 51.40269 | 0.16884 | 1992 ft | 121 kts | 239° |
| 2026-05-06 13:18 | 51.39830 | 0.15768 | 1998 ft | 118 kts | 252° |
| 2026-05-06 13:19 | 51.39522 | 0.14554 | 2019 ft | 117 kts | 265° |
| 2026-05-06 13:19 | 51.39367 | 0.13292 | 2002 ft | 114 kts | 270° |
| 2026-05-06 13:19 | 51.39295 | 0.12036 | 1982 ft | 113 kts | 277° |
| 2026-05-06 13:19 | 51.39298 | 0.10798 | 2001 ft | 112 kts | 279° |
| 2026-05-06 13:20 | 51.39285 | 0.09535 | 1969 ft | 116 kts | 276° |
| 2026-05-06 13:20 | 51.39217 | 0.08230 | 1913 ft | 117 kts | 273° |
| 2026-05-06 13:20 | 51.39240 | 0.06922 | 1814 ft | 119 kts | 288° |
| 2026-05-06 13:20 | 51.39272 | 0.05565 | 1749 ft | 123 kts | 272° |
| 2026-05-06 13:21 | 51.39173 | 0.04346 | 1803 ft | 115 kts | 271° |
| 2026-05-06 13:21 | 51.39090 | 0.03159 | 1853 ft | 114 kts | 258° |
| 2026-05-06 13:21 | 51.38644 | 0.02072 | 1930 ft | 119 kts | 238° |
| 2026-05-06 13:21 | 51.38109 | 0.01055 | 1984 ft | 119 kts | 233° |
| 2026-05-06 13:22 | 51.37553 | 0.00064 | 2000 ft | 121 kts | 233° |
| 2026-05-06 13:22 | 51.36990 | -0.00923 | 1988 ft | 120 kts | 231° |
| 2026-05-06 13:22 | 51.36428 | -0.01917 | 1990 ft | 120 kts | 234° |
| 2026-05-06 13:22 | 51.35882 | -0.02913 | 1995 ft | 117 kts | 233° |
| 2026-05-06 13:23 | 51.35342 | -0.03877 | 2033 ft | 116 kts | 233° |
| 2026-05-06 13:23 | 51.34810 | -0.04834 | 2017 ft | 113 kts | 234° |
| 2026-05-06 13:23 | 51.34295 | -0.05774 | 2033 ft | 112 kts | 234° |
| 2026-05-06 13:23 | 51.33783 | -0.06721 | 2014 ft | 113 kts | 235° |
| 2026-05-06 13:24 | 51.33274 | -0.07665 | 2014 ft | 112 kts | 236° |
| 2026-05-06 13:24 | 51.32754 | -0.08610 | 1994 ft | 114 kts | 234° |
| 2026-05-06 13:24 | 51.32246 | -0.09538 | 1967 ft | 108 kts | 236° |
| 2026-05-06 13:24 | 51.31882 | -0.10193 | 1988 ft | 104 kts | 236° |
| 2026-05-06 13:25 | 51.31408 | -0.11051 | 2002 ft | 102 kts | 236° |
| 2026-05-06 13:25 | 51.30944 | -0.11902 | 2003 ft | 101 kts | 235° |
| 2026-05-06 13:25 | 51.30481 | -0.12756 | 1987 ft | 101 kts | 234° |
| 2026-05-06 13:25 | 51.30024 | -0.13597 | 1980 ft | 100 kts | 234° |
| 2026-05-06 13:26 | 51.29557 | -0.14443 | 1998 ft | 107 kts | 236° |
| 2026-05-06 13:26 | 51.29050 | -0.15391 | 2006 ft | 118 kts | 238° |
| 2026-05-06 13:26 | 51.28502 | -0.16415 | 2015 ft | 125 kts | 235° |
| 2026-05-06 13:26 | 51.27921 | -0.17477 | 1990 ft | 128 kts | 234° |
| 2026-05-06 13:27 | 51.27342 | -0.18531 | 1990 ft | 128 kts | 235° |
| 2026-05-06 13:27 | 51.26751 | -0.19611 | 1980 ft | 127 kts | 235° |
| 2026-05-06 13:27 | 51.26169 | -0.20674 | 1979 ft | 127 kts | 235° |
| 2026-05-06 13:27 | 51.25588 | -0.21731 | 1978 ft | 125 kts | 237° |
| 2026-05-06 13:28 | 51.25032 | -0.22745 | 1955 ft | 119 kts | 236° |
| 2026-05-06 13:28 | 51.24483 | -0.23736 | 1975 ft | 121 kts | 233° |
| 2026-05-06 13:28 | 51.23745 | -0.24421 | 1876 ft | 132 kts | 196° |
| 2026-05-06 13:28 | 51.22779 | -0.24608 | 1514 ft | 142 kts | 188° |
| 2026-05-06 13:29 | 51.21846 | -0.24633 | 1443 ft | 125 kts | 171° |
| 2026-05-06 13:29 | 51.21042 | -0.24309 | 1465 ft | 115 kts | 162° |
| 2026-05-06 13:29 | 51.20288 | -0.23973 | 1496 ft | 111 kts | 164° |
| 2026-05-06 13:29 | 51.19546 | -0.23687 | 1481 ft | 108 kts | 168° |
| 2026-05-06 13:30 | 51.18821 | -0.23458 | 1465 ft | 104 kts | 169° |
| 2026-05-06 13:30 | 51.18098 | -0.23232 | 1394 ft | 109 kts | 168° |
| 2026-05-06 13:30 | 51.17342 | -0.22962 | 1328 ft | 114 kts | 163° |
| 2026-05-06 13:30 | 51.16688 | -0.22330 | 1274 ft | 108 kts | 112° |
| 2026-05-06 13:31 | 51.16868 | -0.21383 | 1162 ft | 94 kts | 17° |
| 2026-05-06 13:31 | 51.17325 | -0.21854 | 1255 ft | 95 kts | 283° |
| 2026-05-06 13:31 | 51.16865 | -0.22634 | 1215 ft | 114 kts | 185° |
| 2026-05-06 13:31 | 51.16085 | -0.22260 | 1104 ft | 120 kts | 161° |
| 2026-05-06 13:32 | 51.15275 | -0.21932 | 1028 ft | 120 kts | 167° |
| 2026-05-06 13:32 | 51.14443 | -0.21690 | 958 ft | 123 kts | 167° |
| 2026-05-06 13:32 | 51.13608 | -0.21441 | 932 ft | 121 kts | 167° |
| 2026-05-06 13:32 | 51.12770 | -0.21221 | 927 ft | 122 kts | 173° |
| 2026-05-06 13:33 | 51.11921 | -0.21206 | 987 ft | 121 kts | 169° |
| 2026-05-06 13:33 | 51.11106 | -0.20991 | 1059 ft | 118 kts | 171° |
| 2026-05-06 13:33 | 51.10283 | -0.20900 | 1118 ft | 119 kts | 175° |
| 2026-05-06 13:33 | 51.09450 | -0.20817 | 1184 ft | 121 kts | 175° |
| 2026-05-06 13:34 | 51.08607 | -0.20717 | 1237 ft | 121 kts | 175° |
| 2026-05-06 13:34 | 51.07770 | -0.20606 | 1277 ft | 121 kts | 176° |
| 2026-05-06 13:34 | 51.06935 | -0.20491 | 1323 ft | 120 kts | 176° |
| 2026-05-06 13:34 | 51.06122 | -0.20364 | 1377 ft | 120 kts | 174° |
| 2026-05-06 13:35 | 51.05274 | -0.20296 | 1418 ft | 120 kts | 187° |
| 2026-05-06 13:35 | 51.04474 | -0.20583 | 1456 ft | 117 kts | 199° |
| 2026-05-06 13:35 | 51.03704 | -0.20927 | 1477 ft | 118 kts | 197° |
| 2026-05-06 13:35 | 51.02906 | -0.21276 | 1482 ft | 120 kts | 199° |
| 2026-05-06 13:36 | 51.02096 | -0.21636 | 1492 ft | 122 kts | 198° |
| 2026-05-06 13:36 | 51.01277 | -0.22002 | 1493 ft | 122 kts | 198° |
| 2026-05-06 13:36 | 51.00470 | -0.22368 | 1473 ft | 119 kts | 198° |
| 2026-05-06 13:36 | 50.99674 | -0.22715 | 1482 ft | 118 kts | 197° |
| 2026-05-06 13:37 | 50.98880 | -0.23063 | 1513 ft | 119 kts | 197° |
| 2026-05-06 13:37 | 50.98108 | -0.23553 | 1494 ft | 121 kts | 208° |
| 2026-05-06 13:37 | 50.97343 | -0.24108 | 1490 ft | 121 kts | 210° |
| 2026-05-06 13:37 | 50.96589 | -0.24711 | 1507 ft | 122 kts | 209° |
| 2026-05-06 13:38 | 50.95829 | -0.25319 | 1498 ft | 123 kts | 208° |
| 2026-05-06 13:38 | 50.95047 | -0.25854 | 1487 ft | 122 kts | 205° |
| 2026-05-06 13:38 | 50.94273 | -0.26393 | 1478 ft | 121 kts | 206° |
| 2026-05-06 13:38 | 50.93496 | -0.26914 | 1494 ft | 122 kts | 206° |
| 2026-05-06 13:39 | 50.92693 | -0.27421 | 1508 ft | 127 kts | 200° |
| 2026-05-06 13:39 | 50.91856 | -0.27867 | 1537 ft | 126 kts | 202° |
| 2026-05-06 13:39 | 50.91013 | -0.28297 | 1497 ft | 128 kts | 199° |
| 2026-05-06 13:39 | 50.90175 | -0.28730 | 1550 ft | 123 kts | 200° |
| 2026-05-06 13:40 | 50.89364 | -0.29144 | 1507 ft | 124 kts | 200° |
| 2026-05-06 13:40 | 50.88533 | -0.29605 | 1434 ft | 128 kts | 200° |
| 2026-05-06 13:40 | 50.87669 | -0.30058 | 1359 ft | 134 kts | 200° |
| 2026-05-06 13:40 | 50.86784 | -0.30522 | 1236 ft | 135 kts | 201° |
| 2026-05-06 13:41 | 50.85898 | -0.31011 | 1135 ft | 136 kts | 202° |
| 2026-05-06 13:41 | 50.85024 | -0.31514 | 1066 ft | 128 kts | 204° |
| 2026-05-06 13:41 | 50.84234 | -0.32002 | 967 ft | 117 kts | 203° |
| 2026-05-06 13:41 | 50.83506 | -0.32490 | 840 ft | 107 kts | 206° |
| 2026-05-06 13:42 | 50.82848 | -0.32918 | 815 ft | 98 kts | 202° |
| 2026-05-06 13:42 | 50.82229 | -0.33228 | 857 ft | 84 kts | 198° |
| 2026-05-06 13:42 | 50.81863 | -0.33170 | 840 ft | 80 kts | 136° |
| 2026-05-06 13:42 | 50.81721 | -0.32408 | 700 ft | 77 kts | 93° |
| 2026-05-06 13:43 | 50.81683 | -0.31585 | 642 ft | 76 kts | 77° |
| 2026-05-06 13:43 | 50.81849 | -0.30853 | 563 ft | 66 kts | 34° |
| 2026-05-06 13:43 | 50.82385 | -0.30458 | 346 ft | 66 kts | 15° |
| 2026-05-06 13:43 | 50.82836 | -0.30191 | 217 ft | 70 kts | 17° |
| 2026-05-06 13:44 | 50.83300 | -0.29896 | 13 ft | 68 kts | 19° |
| 2026-05-06 13:44 | 50.83542 | -0.29744 | 6 ft | 45 kts | 20° |
| 2026-05-06 13:44 | 50.83770 | -0.29602 | 6 ft | 30 kts | 20° |
| 2026-05-06 13:44 | 50.83928 | -0.29506 | 4 ft | 21 kts | 24° |
| 2026-05-06 13:45 | 50.83988 | -0.29417 | 3 ft | 10 kts | 111° |
| 2026-05-06 13:45 | 50.83894 | -0.29335 | 3 ft | 8 kts | 185° |
| 2026-05-06 13:45 | 50.83835 | -0.29320 | 3 ft | 13 kts | 147° |
| 2026-05-06 13:46 | 50.83766 | -0.29180 | 3 ft | 18 kts | 124° |
| 2026-05-06 13:46 | 50.83688 | -0.28998 | 3 ft | 21 kts | 124° |
| 2026-05-06 13:46 | 50.83616 | -0.28844 | 3 ft | 15 kts | 142° |
| 2026-05-06 13:46 | 50.83527 | -0.28828 | 3 ft | 13 kts | 218° |
| 2026-05-06 13:47 | 50.83486 | -0.28899 | 3 ft | 7 kts | 172° |
| 2026-05-06 13:47 | 50.83449 | -0.28901 | 3 ft | 4 kts | 253° |
| 2026-05-06 13:47 | 50.83448 | -0.28907 | 3 ft | 0 kts | 251° |